SARE/RES METAR and TAF weather

Enter ICAO airport designator
Station Type Date Time Source
SARE METAR 2020/11/25 22:18 UTC NOAA

SARE 252218Z 11014KT 6000 -TSRA SCT045 FEW056CB OVC150 27/20 Q1006


Station Type Date Time Source
SARE Decoded METAR 2020/11/25 22:18 UTC NOAA

Resistencia Aero., Argentina (SARE) 27-27S 059-03W 52M
Nov 25, 2020 - 05:18 PM EST / 2020.11.25 2218 UTC
Wind: from the ESE (110 degrees) at 16 MPH (14 KT):0
Visibility: 3 mile(s):0
Sky conditions: overcast
Weather: light rain with thunder; Cumulonimbus clouds observed
Temperature: 80 F (27 C)
Dew Point: 68 F (20 C)
Relative Humidity: 65%
Pressure (altimeter): 29.71 in. Hg (1006 hPa)
ob: SARE 252218Z 11014KT 6000 -TSRA SCT045 FEW056CB OVC150 27/20 Q1006
cycle: 22

Station Type Date Time Source
SARE TAF 2020/11/25 20:12 UTC NOAA

TAF
AMD SARE 251955Z 2520/2618 17015G30KT 6000 TSRA SCT056CB BKN100 TX34/2619Z TN24/2609Z
TEMPO 2521/2523 VRB03KT 9999 SCT050 OVC060
BECMG 2523/2601 23010G30KT 9999 BKN030 OVC050
TEMPO 2602/2610 3000 +TSRA OVC30 FEW050CB

Example: see airport list